Terminal Aerodrome Forecast
Issued by NWS

Home | Current Version | Previous Version | Text Only | Print | Product List | Glossary On
Versions: 1 2 3 4 5 6 7 8 9 10 11 12 13 14 15 16 17 18 19 20 21 22
000
FTUS45 KCYS 280520
TAFLAR
TAF
KLAR 280520Z 2806/2906 VRB05KT P6SM -RA BKN010 OVC025
     FM280800 15006KT 5SM -SN OVC007
     FM281400 03010KT 1 1/2SM -RASN BKN003 OVC007
     FM282200 35015G25KT 3/4SM -SN OVC003=

USA.gov is the U.S. government's official web portal to all federal, state and local government web resources and services.